Miscellaneous Local Product
Issued by NWS

Home | Current Version | Previous Version | Text Only | Print | Product List | Glossary On
Versions: 1 2 3 4 5 6 7 8 9 10 11 12 13 14 15 16 17 18 19 20 21 22 23 24 25 26 27 28 29 30 31 32 33 34 35 36 37 38 39 40 41 42 43 44 45 46 47 48 49 50
000
AXUS44 KLUB 190207
MISWTM
METAR KAD1 190205Z 07009KT 29/12 A2999 RMK A01 SLP058 T02910129 RH 36%=
METAR KAHS 190205Z 32006KT 34/15 A2988 RMK A01 SLP075 T03420156 RH 33%=
METAR KAI1 190205Z 15008KT 30/15 A2992 RMK A01 SLP061 T03010153 RH 40%=
METAR KAM1 190205Z 04007KT 29/11 A2994 RMK A01 SLP063 T02900112 RH 33%=
METAR KAM2 190205Z 13001KT 26/16 A2992 RMK A01 SLP063 T02660160 RH 52%=
METAR KAM3 190205Z 02007KT 28/15 A2992 RMK A01 SLP062 T02880152 RH 43%=
METAR KAMH 190205Z 18006KT 29/10 A2992 RMK A01 SLP055 T02980105 RH 31%=
METAR KANS 190205Z 15005KT 33/10 A2989 RMK A01 SLP057 T03300109 RH 26%=
METAR KAOS 190205Z 20005KT 33/07 A2990 RMK A01 SLP052 T03330078 RH 21%=
METAR KARS 190205Z 15007KT 30/13 A2991 RMK A01 SLP060 T03060138 RH 37%=
METAR KASR 190205Z 14010KT 35/16 A2982 RMK A01 SLP068 T03570160 RH 31%=
METAR KASU 190205Z 11007KT 33/11 A2985 RMK A01 SLP077 T03370118 RH 27%=
METAR KBI1 190205Z 15007KT 33/16 A2991 RMK A01 SLP076 T03350167 RH 36%=
METAR KBO1 190205Z 10003KT 31/03 A3001 RMK A01 SLP060 T03140035 RH 17%=
METAR KBR1 190205Z 05009KT 27/11 A2996 RMK A01 SLP059 T02740118 RH 37%=
METAR KBWS 190205Z 15005KT 32/11 A2989 RMK A01 SLP054 T03240119 RH 29%=
METAR KCA1 190205Z 10008KT 31/19 A2986 RMK A01 SLP068 T03100197 RH 50%=
METAR KCA2 190205Z 28008KT 28/20 A2987 RMK A01 SLP075 T02820202 RH 61%=
METAR KCES 190205Z 14013KT 30/12 A2988 RMK A01 SLP064 T03040124 RH 34%=
METAR KCH1 190205Z 14007KT 33/14 A2986 RMK A01 SLP079 T03360146 RH 31%=
METAR KCL1 190205Z 10007KT 29/14 A2993 RMK A01 SLP061 T02930144 RH 40%=
METAR KCL2 190205Z 13006KT 31/15 A2988 RMK A01 SLP085 T03190156 RH 37%=
METAR KCO1 190205Z 11007KT 34/13 A2985 RMK A01 SLP058 T03440134 RH 28%=
METAR KCO2 190205Z 13008KT 34/13 A2985 RMK A01 SLP070 T03460138 RH 28%=
METAR KCR1 190205Z 15009KT 36/17 A2981 RMK A01 SLP072 T03650179 RH 33%=
METAR KCR2 190205Z 16013KT 36/16 A2986 RMK A01 SLP059 T03690165 RH 30%=
METAR KCXS 190205Z 13014KT 27/17 A2984 RMK A01 SLP075 T02770175 RH 56%=
METAR KDC1 190205Z 19002KT 34/08 A2993 RMK A01 SLP056 T03410083 RH 20%=
METAR KDMS 190205Z 16004KT 30/09 A2994 RMK A01 SLP054 T03010091 RH 27%=
METAR KDO1 190205Z 21004KT 27/16 A2987 RMK A01 SLP078 T02740165 RH 51%=
METAR KDO2 190205Z 13007KT 32/15 A2984 RMK A01 SLP082 T03270153 RH 35%=
METAR KDR1 190205Z 11007KT 28/08 A2997 RMK A01 SLP051 T02820080 RH 28%=
METAR KDVS 190205Z 14006KT 30/06 A2991 RMK A01 SLP053 T03050068 RH 23%=
METAR KEA1 190205Z 15008KT 30/11 A2994 RMK A01 SLP056 T03090114 RH 30%=
METAR KEN1 190205Z 06010KT 25/07 A2994 RMK A01 SLP059 T02510076 RH 32%=
METAR KES1 190205Z 33002KT 28/18 A2985 RMK A01 SLP077 T02870187 RH 54%=
METAR KFAS 190205Z 07004KT 30/09 A2996 RMK A01 SLP055 T03030099 RH 29%=
METAR KFL1 190205Z 31005KT 18/02 A3030 RMK A01 SLP034 T01830022 RH 34%=
METAR KFLS 190205Z 15009KT 31/11 A2990 RMK A01 SLP060 T03100110 RH 29%=
METAR KFR1 190205Z 08006KT 31/16 A2991 RMK A01 SLP064 T03130163 RH 40%=
METAR KFVS 190205Z 14013KT 34/12 A2986 RMK A01 SLP060 T03480124 RH 27%=
METAR KGDS 190205Z 07027G36KT 24/18 A2984 RMK A01 SLP081 T02450188 RH 74%=
METAR KGGS 190205Z 13011KT 35/11 A2985 RMK A01 SLP057 T03560110 RH 23%=
METAR KGHS 190205Z 14012KT 35/10 A2987 RMK A01 SLP059 T03550101 RH 22%=
METAR KGO1 190205Z 16005KT 29/15 A2992 RMK A01 SLP067 T02910152 RH 42%=
METAR KGU1 190205Z 25003KT 30/05 A3011 RMK A01 SLP041 T03060051 RH 20%=
METAR KHA1 190205Z 14008KT 34/16 A2982 RMK A01 SLP072 T03400164 RH 36%=
METAR KHA2 190205Z 23005KT 32/07 A2993 RMK A01 SLP056 T03290079 RH 21%=
METAR KHA3 190205Z 15005KT 34/17 A2984 RMK A01 SLP073 T03460175 RH 36%=
METAR KHES 190205Z 06003KT 32/06 A2994 RMK A01 SLP055 T03210063 RH 20%=
METAR KHO1 190205Z 13006KT 33/06 A2995 RMK A01 SLP059 T03390060 RH 17%=
METAR KHRS 190205Z 17003KT 29/11 A2993 RMK A01 SLP056 T02980116 RH 33%=
METAR KJTS 190205Z 14008KT 35/14 A2982 RMK A01 SLP064 T03560144 RH 29%=
METAR KJU1 190205Z 14005KT 33/18 A2989 RMK A01 SLP093 T03310182 RH 41%=
METAR KKN1 190205Z 14013KT 35/17 A2980 RMK A01 SLP069 T03560173 RH 35%=
METAR KLA1 190205Z 13009KT 34/18 A2986 RMK A01 SLP074 T03430188 RH 40%=
METAR KLBW 190205Z 13008KT 33/11 A2990 RMK A01 SLP057 T03390110 RH 25%=
METAR KLD1 190205Z 12005KT 30/11 A2991 RMK A01 SLP057 T03060111 RH 31%=
METAR KLE1 190205Z 14015KT 26/18 A2985 RMK A01 SLP075 T02630186 RH 62%=
METAR KLES 190205Z 14007KT 32/13 A2988 RMK A01 SLP059 T03270134 RH 32%=
METAR KLO1 190205Z 14009KT 34/12 A2986 RMK A01 SLP064 T03490128 RH 26%=
METAR KMC1 190205Z 12006KT 32/16 A2991 RMK A01 SLP089 T03280164 RH 37%=
METAR KMC4 190205Z 14011KT 35/17 A2987 RMK A01 SLP067 T03590170 RH 32%=
METAR KMC5 190205Z 09006KT 28/14 A2993 RMK A01 SLP070 T02880146 RH 41%=
METAR KMCS 190205Z 12003KT 26/15 A2988 RMK A01 SLP068 T02620155 RH 54%=
METAR KMD1 190205Z 13007KT 32/17 A2989 RMK A01 SLP091 T03290172 RH 39%=
METAR KME1 190205Z 12004KT 32/14 A2988 RMK A01 SLP079 T03290143 RH 32%=
METAR KMES 190205Z 13016KT 27/15 A2982 RMK A01 SLP068 T02780151 RH 48%=
METAR KMNS 190205Z 12005KT 29/09 A2993 RMK A01 SLP055 T02940091 RH 29%=
METAR KMUS 190205Z 15008KT 28/10 A2993 RMK A01 SLP055 T02860106 RH 33%=
METAR KNH1 190205Z 16003KT 33/12 A2991 RMK A01 SLP058 T03380128 RH 27%=
METAR KNOR 190205Z 12008KT 30/14 A2984 RMK A01 SLP071 T03010147 RH 40%=
METAR KOD1 190205Z 14008KT 35/18 A2981 RMK A01 SLP074 T03510181 RH 36%=
METAR KOES 190205Z 15006KT 34/12 A2988 RMK A01 SLP055 T03440122 RH 27%=
METAR KONS 190205Z 19006KT 29/10 A2992 RMK A01 SLP057 T02920106 RH 32%=
METAR KPA1 190205Z 10007KT 27/16 A2995 RMK A01 SLP070 T02770167 RH 51%=
METAR KPAD 190205Z 14017KT 28/16 A2982 RMK A01 SLP065 T02830160 RH 49%=
METAR KPD1 190205Z 15009KT 32/13 A2993 RMK A01 SLP060 T03210130 RH 31%=
METAR KPD2 190205Z 12006KT 33/14 A2987 RMK A01 SLP058 T03370142 RH 30%=
METAR KPD3 190205Z 13013KT 30/16 A2987 RMK A01 SLP069 T03020161 RH 42%=
METAR KPD4 190205Z 08012KT 31/17 A2992 RMK A01 SLP071 T03120172 RH 43%=
METAR KPFS 190205Z 05006KT 35/13 A2983 RMK A01 SLP067 T03520135 RH 28%=
METAR KPMS 190205Z 08008KT 28/19 A2993 RMK A01 SLP070 T02880194 RH 59%=
METAR KPPS 190205Z 13006KT 31/10 A2992 RMK A01 SLP052 T03160105 RH 28%=
METAR KPT1 190205Z 11010KT 33/11 A2986 RMK A01 SLP062 T03370112 RH 26%=
METAR KPVS 190205Z 17004KT 31/12 A2989 RMK A01 SLP053 T03190127 RH 31%=
METAR KQU1 190205Z 14011KT 30/14 A2989 RMK A01 SLP073 T03030147 RH 38%=
METAR KREE 190205Z 22005KT 33/09 A2990 RMK A01 SLP057 T03310094 RH 23%=
METAR KRLS 190205Z 14012KT 30/09 A2990 RMK A01 SLP065 T03040098 RH 28%=
METAR KRO1 190205Z 13012KT 33/16 A2984 RMK A01 SLP069 T03380162 RH 34%=
METAR KRRS 190205Z 09007KT 29/16 A2987 RMK A01 SLP066 T02970169 RH 48%=
METAR KSB1 190205Z 25004KT 30/06 A3004 RMK A01 SLP058 T03060069 RH 22%=
METAR KSC1 190205Z 10009KT 34/12 A2988 RMK A01 SLP074 T03460129 RH 27%=
METAR KSDS 190205Z 07006KT 30/09 A2992 RMK A01 SLP055 T03090098 RH 28%=
METAR KSE1 190205Z 15012KT 35/16 A2980 RMK A01 SLP071 T03550162 RH 33%=
METAR KSE2 190205Z 11005KT 30/18 A2993 RMK A01 SLP099 T03020182 RH 48%=
METAR KSGV 190205Z 15005KT 32/09 A2989 RMK A01 SLP054 T03290094 RH 24%=
METAR KSLS 190205Z 09008KT 30/13 A2990 RMK A01 SLP063 T03010137 RH 37%=
METAR KSM1 190205Z 14005KT 30/08 A2989 RMK A01 SLP054 T03060088 RH 26%=
METAR KSM2 190205Z 16005KT 35/09 A2991 RMK A01 SLP056 T03510092 RH 20%=
METAR KSP1 190205Z 18009KT 32/15 A2983 RMK A01 SLP060 T03280150 RH 35%=
METAR KSP2 190205Z 09010KT 29/15 A2991 RMK A01 SLP064 T02960159 RH 43%=
METAR KST1 190205Z 15008KT 34/13 A2988 RMK A01 SLP066 T03420132 RH 28%=
METAR KST2 190205Z 14009KT 34/16 A2983 RMK A01 SLP077 T03490169 RH 34%=
METAR KST3 190205Z 10007KT 30/18 A2994 RMK A01 SLP071 T03010189 RH 51%=
METAR KST4 190205Z 05005KT 25/16 A2998 RMK A01 SLP075 T02550167 RH 58%=
METAR KSVS 190205Z 11013KT 30/13 A2992 RMK A01 SLP064 T03000136 RH 38%=
METAR KSW1 190205Z 13009KT 33/14 A2990 RMK A01 SLP079 T03340142 RH 31%=
METAR KSYS 190205Z 13012KT 33/12 A2985 RMK A01 SLP065 T03360122 RH 28%=
METAR KTA1 190205Z 14006KT 33/15 A2987 RMK A01 SLP059 T03360152 RH 33%=
METAR KTAS 190205Z 15008KT 33/12 A2989 RMK A01 SLP056 T03350122 RH 27%=
METAR KTAT 190205Z 16006KT 29/05 A2995 RMK A01 SLP052 T02920054 RH 22%=
METAR KTH1 190205Z 14008KT 33/17 A2983 RMK A01 SLP080 T03350174 RH 38%=
METAR KTIS 190205Z 15005KT 29/13 A2991 RMK A01 SLP055 T02900139 RH 41%=
METAR KTUR 190205Z 10014KT 31/15 A2985 RMK A01 SLP064 T03120151 RH 38%=
METAR KUM1 190205Z 03008KT 31/09 A2995 RMK A01 SLP061 T03100090 RH 25%=
METAR KVA1 190205Z 22006KT 31/10 A2998 RMK A01 SLP060 T03120106 RH 28%=
METAR KVP1 190205Z 11011KT 30/14 A2992 RMK A01 SLP059 T03080144 RH 37%=
METAR KWA1 190205Z 12007KT 32/15 A2987 RMK A01 SLP084 T03290150 RH 34%=
METAR KWE1 190205Z 15011KT 35/16 A2982 RMK A01 SLP073 T03530167 RH 33%=
METAR KWE2 190205Z 15007KT 31/14 A2989 RMK A01 SLP059 T03160148 RH 36%=
METAR KWOS 190205Z 22000KT 34/10 A2990 RMK A01 SLP057 T03480101 RH 22%=
METAR KWT1 190205Z 15010KT 34/13 A2986 RMK A01 SLP067 T03450138 RH 28%=
METAR KWVS 190200Z 15005KT 30/13 A2987 RMK A01 SLP064 T03040131 RH 36%=

$$


USA.gov is the U.S. government's official web portal to all federal, state and local government web resources and services.